sensor_id;sensor_type;location;lat;lon;timestamp;P1;durP1;ratioP1;P2;durP2;ratioP2
31686;SDS011;18285;51.330;4.946;2022-12-07T00:11:20;2.60;;;1.50;;
31686;SDS011;18285;51.330;4.946;2022-12-07T00:35:32;2.20;;;1.60;;
31686;SDS011;18285;51.330;4.946;2022-12-07T00:59:43;2.83;;;1.67;;
31686;SDS011;18285;51.330;4.946;2022-12-07T01:23:53;1.98;;;1.40;;
31686;SDS011;18285;51.330;4.946;2022-12-07T01:48:05;1.40;;;1.10;;
31686;SDS011;18285;51.330;4.946;2022-12-07T02:12:17;1.25;;;1.00;;
31686;SDS011;18285;51.330;4.946;2022-12-07T02:36:30;2.17;;;1.23;;
31686;SDS011;18285;51.330;4.946;2022-12-07T03:01:09;2.88;;;1.20;;
31686;SDS011;18285;51.330;4.946;2022-12-07T03:25:23;1.75;;;1.00;;
31686;SDS011;18285;51.330;4.946;2022-12-07T04:13:55;2.03;;;0.95;;
31686;SDS011;18285;51.330;4.946;2022-12-07T04:38:24;2.20;;;1.00;;
31686;SDS011;18285;51.330;4.946;2022-12-07T05:02:35;2.00;;;1.13;;
31686;SDS011;18285;51.330;4.946;2022-12-07T05:26:45;1.57;;;0.83;;
31686;SDS011;18285;51.330;4.946;2022-12-07T05:50:56;1.70;;;0.90;;
31686;SDS011;18285;51.330;4.946;2022-12-07T06:15:07;3.13;;;1.10;;
31686;SDS011;18285;51.330;4.946;2022-12-07T06:39:18;9.13;;;2.53;;
31686;SDS011;18285;51.330;4.946;2022-12-07T07:03:31;9.40;;;2.63;;
31686;SDS011;18285;51.330;4.946;2022-12-07T07:27:41;6.13;;;1.97;;
31686;SDS011;18285;51.330;4.946;2022-12-07T07:51:52;5.87;;;2.70;;
31686;SDS011;18285;51.330;4.946;2022-12-07T08:16:03;7.50;;;2.40;;
31686;SDS011;18285;51.330;4.946;2022-12-07T08:40:19;4.00;;;2.55;;
31686;SDS011;18285;51.330;4.946;2022-12-07T09:04:31;4.13;;;2.20;;
31686;SDS011;18285;51.330;4.946;2022-12-07T09:28:41;5.17;;;2.00;;
31686;SDS011;18285;51.330;4.946;2022-12-07T09:52:56;3.38;;;1.98;;
31686;SDS011;18285;51.330;4.946;2022-12-07T10:17:38;5.43;;;2.08;;
31686;SDS011;18285;51.330;4.946;2022-12-07T10:41:54;3.35;;;1.83;;
31686;SDS011;18285;51.330;4.946;2022-12-07T11:31:03;4.78;;;2.20;;
31686;SDS011;18285;51.330;4.946;2022-12-07T11:55:42;5.63;;;1.98;;
31686;SDS011;18285;51.330;4.946;2022-12-07T12:44:41;3.97;;;1.55;;
31686;SDS011;18285;51.330;4.946;2022-12-07T13:09:21;4.65;;;2.03;;
31686;SDS011;18285;51.330;4.946;2022-12-07T13:33:36;9.80;;;2.50;;
31686;SDS011;18285;51.330;4.946;2022-12-07T13:57:51;5.60;;;2.80;;
31686;SDS011;18285;51.330;4.946;2022-12-07T14:22:07;8.10;;;2.30;;
31686;SDS011;18285;51.330;4.946;2022-12-07T14:46:28;4.10;;;1.80;;
31686;SDS011;18285;51.330;4.946;2022-12-07T15:10:39;9.43;;;3.88;;
31686;SDS011;18285;51.330;4.946;2022-12-07T15:35:04;6.03;;;2.70;;
31686;SDS011;18285;51.330;4.946;2022-12-07T15:59:50;6.43;;;2.58;;
31686;SDS011;18285;51.330;4.946;2022-12-07T16:24:01;5.95;;;3.42;;
31686;SDS011;18285;51.330;4.946;2022-12-07T16:48:15;6.73;;;2.63;;
31686;SDS011;18285;51.330;4.946;2022-12-07T17:12:49;9.65;;;4.70;;
31686;SDS011;18285;51.330;4.946;2022-12-07T17:37:00;12.50;;;4.15;;
31686;SDS011;18285;51.330;4.946;2022-12-07T18:01:10;8.18;;;4.20;;
31686;SDS011;18285;51.330;4.946;2022-12-07T18:25:22;6.25;;;4.40;;
31686;SDS011;18285;51.330;4.946;2022-12-07T18:49:33;14.97;;;5.33;;
31686;SDS011;18285;51.330;4.946;2022-12-07T19:13:44;10.77;;;4.05;;
31686;SDS011;18285;51.330;4.946;2022-12-07T19:37:54;10.50;;;4.28;;
31686;SDS011;18285;51.330;4.946;2022-12-07T20:02:05;13.68;;;4.45;;
31686;SDS011;18285;51.330;4.946;2022-12-07T20:26:19;7.50;;;3.65;;
31686;SDS011;18285;51.330;4.946;2022-12-07T20:50:30;7.37;;;3.50;;
31686;SDS011;18285;51.330;4.946;2022-12-07T21:14:40;6.47;;;4.00;;
31686;SDS011;18285;51.330;4.946;2022-12-07T21:38:52;5.57;;;3.72;;
31686;SDS011;18285;51.330;4.946;2022-12-07T22:03:03;11.93;;;4.90;;
31686;SDS011;18285;51.330;4.946;2022-12-07T22:27:13;6.28;;;3.90;;
31686;SDS011;18285;51.330;4.946;2022-12-07T22:51:26;5.65;;;3.28;;
31686;SDS011;18285;51.330;4.946;2022-12-07T23:15:42;5.80;;;4.00;;
31686;SDS011;18285;51.330;4.946;2022-12-07T23:39:53;4.00;;;2.72;;
